createdAt,value
2022-12-08T00:00:17.649Z,1.30
2022-12-08T00:02:48.580Z,1.30
2022-12-08T00:05:36.744Z,1.40
2022-12-08T00:08:23.227Z,1.40
2022-12-08T00:10:51.844Z,1.40
2022-12-08T00:13:20.297Z,1.40
2022-12-08T00:15:50.284Z,1.40
2022-12-08T00:18:18.784Z,1.30
2022-12-08T00:20:48.178Z,1.40
2022-12-08T00:23:17.424Z,1.30
2022-12-08T00:25:46.019Z,1.40
2022-12-08T00:28:14.619Z,1.50
2022-12-08T00:30:44.636Z,1.50
2022-12-08T00:33:18.525Z,1.50
2022-12-08T00:35:50.746Z,1.40
2022-12-08T00:38:20.888Z,1.50
2022-12-08T00:40:50.099Z,1.50
2022-12-08T00:43:23.952Z,1.50
2022-12-08T00:45:55.250Z,1.40
2022-12-08T00:48:25.198Z,1.50
2022-12-08T00:50:53.850Z,1.50
2022-12-08T00:53:22.793Z,1.50
2022-12-08T00:55:54.518Z,1.50
2022-12-08T00:58:23.392Z,1.40
2022-12-08T01:00:52.067Z,1.50
2022-12-08T01:03:21.008Z,1.50
2022-12-08T01:05:57.005Z,1.50
2022-12-08T01:08:25.805Z,1.40
2022-12-08T01:10:58.917Z,1.30
2022-12-08T01:13:27.470Z,1.20
2022-12-08T01:15:55.969Z,1.20
2022-12-08T01:18:24.418Z,1.30
2022-12-08T01:20:54.473Z,1.30
2022-12-08T01:23:23.175Z,1.30
2022-12-08T01:25:51.831Z,1.20
2022-12-08T01:28:20.117Z,1.30
2022-12-08T01:30:48.524Z,1.30
2022-12-08T01:33:16.810Z,1.20
2022-12-08T01:35:45.329Z,1.20
2022-12-08T01:38:14.990Z,1.10
2022-12-08T01:40:43.398Z,1.20
2022-12-08T01:43:15.834Z,1.20
2022-12-08T01:45:44.630Z,1.20
2022-12-08T01:48:19.487Z,1.20
2022-12-08T01:50:49.824Z,1.30
2022-12-08T01:53:24.609Z,1.30
2022-12-08T01:55:57.423Z,1.30
2022-12-08T01:58:31.441Z,1.30
2022-12-08T02:01:00.024Z,1.30
2022-12-08T02:03:35.288Z,1.30
2022-12-08T02:06:04.904Z,1.30
2022-12-08T02:08:36.493Z,1.30
2022-12-08T02:11:07.575Z,1.30
2022-12-08T02:13:36.040Z,1.30
2022-12-08T02:16:13.054Z,1.30
2022-12-08T02:19:22.392Z,1.30
2022-12-08T02:21:56.465Z,1.30
2022-12-08T02:24:36.602Z,1.20
2022-12-08T02:27:30.382Z,1.20
2022-12-08T02:30:15.831Z,1.30
2022-12-08T02:33:36.953Z,1.30
2022-12-08T02:36:15.139Z,1.30
2022-12-08T02:38:52.091Z,1.30
2022-12-08T02:41:30.756Z,1.30
2022-12-08T02:44:06.762Z,1.30
2022-12-08T02:46:41.607Z,1.30
2022-12-08T02:49:10.895Z,1.30
2022-12-08T02:51:40.712Z,1.30
2022-12-08T02:54:09.149Z,1.30
2022-12-08T02:56:54.971Z,1.40
2022-12-08T02:59:36.787Z,1.40
2022-12-08T03:02:27.904Z,1.40
2022-12-08T03:05:06.458Z,1.40
2022-12-08T03:07:43.199Z,1.40
2022-12-08T03:10:17.931Z,1.30
2022-12-08T03:12:53.366Z,1.30
2022-12-08T03:15:23.606Z,1.30
2022-12-08T03:17:56.095Z,1.20
2022-12-08T03:20:27.345Z,1.30
2022-12-08T03:23:00.086Z,1.20
2022-12-08T03:25:32.383Z,1.20
2022-12-08T03:28:01.517Z,1.30
2022-12-08T03:30:32.566Z,1.30
2022-12-08T03:33:06.183Z,1.30
2022-12-08T03:35:38.253Z,1.30
2022-12-08T03:38:11.829Z,1.30
2022-12-08T03:40:43.704Z,1.30
2022-12-08T03:43:13.168Z,1.30
2022-12-08T03:45:41.497Z,1.30
2022-12-08T03:48:11.036Z,1.40
2022-12-08T03:50:39.386Z,1.40
2022-12-08T03:53:09.446Z,1.50
2022-12-08T03:55:37.704Z,1.50
2022-12-08T03:58:06.124Z,1.50
2022-12-08T04:00:34.563Z,1.40
2022-12-08T04:03:04.626Z,1.50
2022-12-08T04:05:33.099Z,1.40
2022-12-08T04:08:01.989Z,1.50
2022-12-08T04:10:31.826Z,1.40
2022-12-08T04:13:00.265Z,1.40
2022-12-08T04:15:28.629Z,1.50
2022-12-08T04:17:56.946Z,1.50
2022-12-08T04:20:26.502Z,1.50
2022-12-08T04:22:54.911Z,1.50
2022-12-08T04:25:23.425Z,1.50
2022-12-08T04:27:53.239Z,1.50
2022-12-08T04:30:21.637Z,1.50
2022-12-08T04:32:50.261Z,1.60
2022-12-08T04:35:18.916Z,1.60
2022-12-08T04:37:47.159Z,1.60
2022-12-08T04:40:16.078Z,1.60
2022-12-08T04:42:44.680Z,1.50
2022-12-08T04:45:14.503Z,1.50
2022-12-08T04:47:43.988Z,1.60
2022-12-08T04:50:13.175Z,1.60
2022-12-08T04:52:41.930Z,1.50
2022-12-08T04:55:11.336Z,1.50
2022-12-08T04:57:39.892Z,1.50
2022-12-08T05:00:09.957Z,1.60
2022-12-08T05:02:39.694Z,1.60
2022-12-08T05:05:09.344Z,1.60
2022-12-08T05:07:37.764Z,1.60
2022-12-08T05:10:08.354Z,1.60
2022-12-08T05:12:36.725Z,1.60
2022-12-08T05:15:06.449Z,1.60
2022-12-08T05:17:34.859Z,1.70
2022-12-08T05:20:05.413Z,1.80
2022-12-08T05:22:33.913Z,1.80
2022-12-08T05:25:02.621Z,1.80
2022-12-08T05:27:31.072Z,1.80
2022-12-08T05:29:59.333Z,1.80
2022-12-08T05:32:27.869Z,1.80
2022-12-08T05:34:56.312Z,1.80
2022-12-08T05:37:27.372Z,1.70
2022-12-08T05:39:56.214Z,1.80
2022-12-08T05:42:25.360Z,1.80
2022-12-08T05:44:53.834Z,1.80
2022-12-08T05:47:22.409Z,1.90
2022-12-08T05:49:51.002Z,1.80
2022-12-08T05:52:19.292Z,1.80
2022-12-08T05:54:49.548Z,1.80
2022-12-08T05:57:18.006Z,1.80
2022-12-08T05:59:46.409Z,1.80
2022-12-08T06:02:15.370Z,1.80
2022-12-08T06:04:44.369Z,1.80
2022-12-08T06:07:16.086Z,1.80
2022-12-08T06:09:45.108Z,1.80
2022-12-08T06:12:16.118Z,1.80
2022-12-08T06:14:45.827Z,1.80
2022-12-08T06:17:14.347Z,1.80
2022-12-08T06:19:42.761Z,1.80
2022-12-08T06:22:11.811Z,1.80
2022-12-08T06:24:40.172Z,1.80
2022-12-08T06:27:08.559Z,1.80
2022-12-08T06:29:38.282Z,1.80
2022-12-08T06:32:07.416Z,1.90
2022-12-08T06:34:35.732Z,1.90
2022-12-08T06:37:04.197Z,1.90
2022-12-08T06:39:32.644Z,1.90
2022-12-08T06:42:19.795Z,1.90
2022-12-08T06:44:49.731Z,1.80
2022-12-08T06:47:22.093Z,1.80
2022-12-08T06:49:53.560Z,1.80
2022-12-08T06:52:22.158Z,1.70
2022-12-08T06:54:51.677Z,1.70
2022-12-08T06:57:22.113Z,1.70
2022-12-08T06:59:52.022Z,1.60
2022-12-08T07:02:20.414Z,1.70
2022-12-08T07:04:48.804Z,1.60
2022-12-08T07:07:17.067Z,1.60
2022-12-08T07:09:45.449Z,1.60
2022-12-08T07:12:13.741Z,1.70
2022-12-08T07:14:42.000Z,1.60
2022-12-08T07:17:11.743Z,1.70
2022-12-08T07:19:40.106Z,1.70
2022-12-08T07:22:08.468Z,1.70
2022-12-08T07:24:36.885Z,1.70
2022-12-08T07:27:05.306Z,1.80
2022-12-08T07:29:33.546Z,1.80
2022-12-08T07:32:01.823Z,1.80
2022-12-08T07:34:31.493Z,1.80
2022-12-08T07:36:59.756Z,1.90
2022-12-08T07:39:28.179Z,1.90
2022-12-08T07:41:56.573Z,2.00
2022-12-08T07:44:24.872Z,1.90
2022-12-08T07:46:53.117Z,1.90
2022-12-08T07:49:21.501Z,2.00
2022-12-08T07:51:51.285Z,2.00
2022-12-08T07:54:19.594Z,2.00
2022-12-08T07:56:47.879Z,2.00
2022-12-08T07:59:16.203Z,2.00
2022-12-08T08:01:45.587Z,2.10
2022-12-08T08:04:14.156Z,2.10
2022-12-08T08:06:42.492Z,2.10
2022-12-08T08:09:12.149Z,2.20
2022-12-08T08:11:40.671Z,2.20
2022-12-08T08:14:09.081Z,2.30
2022-12-08T08:16:38.728Z,2.30
2022-12-08T08:19:07.296Z,2.40
2022-12-08T08:21:45.432Z,2.40
2022-12-08T08:24:15.743Z,2.50
2022-12-08T08:26:44.043Z,2.60
2022-12-08T08:29:12.352Z,2.60
2022-12-08T08:31:40.853Z,2.70
2022-12-08T08:34:09.161Z,2.70
2022-12-08T08:36:37.572Z,2.70
2022-12-08T08:39:06.107Z,2.80
2022-12-08T08:41:36.529Z,2.80
2022-12-08T08:44:05.188Z,2.80
2022-12-08T08:46:33.831Z,2.80
2022-12-08T08:49:02.571Z,2.80
2022-12-08T08:51:30.793Z,2.80
2022-12-08T08:53:59.308Z,2.80
2022-12-08T08:56:27.699Z,2.80
2022-12-08T08:58:57.706Z,2.80
2022-12-08T09:01:28.849Z,2.80
2022-12-08T09:03:57.877Z,2.80
2022-12-08T09:06:28.071Z,2.90
2022-12-08T09:08:56.607Z,2.90
2022-12-08T09:11:25.321Z,2.90
2022-12-08T09:13:56.349Z,3.00
2022-12-08T09:16:25.335Z,3.10
2022-12-08T09:18:53.947Z,3.10
2022-12-08T09:21:26.213Z,3.10
2022-12-08T09:23:56.929Z,3.10
2022-12-08T09:26:25.950Z,3.10
2022-12-08T09:28:57.433Z,3.10
2022-12-08T09:31:26.328Z,3.10
2022-12-08T09:33:54.947Z,3.20
2022-12-08T09:36:23.481Z,3.20
2022-12-08T09:38:53.689Z,3.30
2022-12-08T09:41:39.272Z,3.40
2022-12-08T09:44:39.722Z,3.50
2022-12-08T09:47:20.007Z,3.50
2022-12-08T09:49:56.258Z,3.50
2022-12-08T09:52:29.320Z,3.60
2022-12-08T09:55:00.907Z,3.50
2022-12-08T09:57:30.830Z,3.50
2022-12-08T10:00:07.368Z,3.50
2022-12-08T10:02:36.103Z,3.60
2022-12-08T10:05:04.742Z,3.60
2022-12-08T10:07:41.625Z,3.70
2022-12-08T10:10:26.165Z,3.70
2022-12-08T10:13:02.192Z,3.70
2022-12-08T10:15:48.694Z,3.70
2022-12-08T10:18:20.909Z,3.70
2022-12-08T10:20:52.274Z,3.80
2022-12-08T10:23:30.808Z,3.90
2022-12-08T10:26:04.676Z,3.90
2022-12-08T10:28:41.413Z,3.90
2022-12-08T10:31:23.350Z,4.00
2022-12-08T10:34:01.892Z,4.00
2022-12-08T10:36:48.648Z,4.10
2022-12-08T10:39:38.627Z,4.10
2022-12-08T10:42:21.475Z,4.30
2022-12-08T10:44:57.134Z,4.40
2022-12-08T10:47:28.985Z,4.40
2022-12-08T10:50:20.435Z,4.40
2022-12-08T10:52:57.666Z,4.30
2022-12-08T10:55:26.518Z,4.40
2022-12-08T10:57:55.033Z,4.40
2022-12-08T11:00:27.448Z,4.40
2022-12-08T11:03:01.700Z,4.40
2022-12-08T11:05:34.338Z,4.50
2022-12-08T11:08:04.896Z,4.40
2022-12-08T11:10:38.413Z,4.30
2022-12-08T11:13:14.530Z,4.30
2022-12-08T11:15:45.074Z,4.30
2022-12-08T11:18:30.032Z,4.40
2022-12-08T11:21:08.773Z,4.30
2022-12-08T11:23:38.672Z,4.30
2022-12-08T11:26:15.378Z,4.30
2022-12-08T11:28:43.825Z,4.30
2022-12-08T11:31:26.510Z,4.30
2022-12-08T11:33:57.537Z,4.30
2022-12-08T11:36:30.628Z,4.30
2022-12-08T11:39:02.610Z,4.30
2022-12-08T11:41:37.042Z,4.20
2022-12-08T11:44:17.893Z,4.30
2022-12-08T11:46:52.369Z,4.30
2022-12-08T11:49:29.676Z,4.30
2022-12-08T11:52:05.397Z,4.40
2022-12-08T11:54:37.089Z,4.40
2022-12-08T11:57:10.406Z,4.30
2022-12-08T11:59:41.854Z,4.50
2022-12-08T12:02:17.166Z,4.60
2022-12-08T12:04:52.873Z,4.50
2022-12-08T12:07:46.024Z,4.60
2022-12-08T12:10:38.170Z,4.70
2022-12-08T12:13:33.782Z,4.60
2022-12-08T12:16:49.322Z,4.50
2022-12-08T12:19:20.524Z,4.50
2022-12-08T12:21:54.675Z,4.70
2022-12-08T12:24:31.558Z,4.60
2022-12-08T12:27:08.096Z,4.50
2022-12-08T12:29:38.811Z,4.60
2022-12-08T12:32:10.259Z,4.60
2022-12-08T12:34:50.957Z,4.60
2022-12-08T12:37:23.985Z,4.70
2022-12-08T12:40:01.154Z,4.70
2022-12-08T12:42:43.323Z,4.60
2022-12-08T12:45:33.017Z,4.70
2022-12-08T12:48:25.525Z,4.70
2022-12-08T12:50:56.907Z,4.60
2022-12-08T12:53:54.538Z,4.50
2022-12-08T12:56:53.024Z,4.50
2022-12-08T12:59:37.582Z,4.60
2022-12-08T13:02:21.507Z,4.70
2022-12-08T13:04:59.887Z,4.70
2022-12-08T13:07:32.346Z,4.70
2022-12-08T13:10:15.140Z,4.70
2022-12-08T13:12:44.936Z,4.70
2022-12-08T13:15:20.793Z,4.60
2022-12-08T13:17:50.939Z,4.60
2022-12-08T13:20:24.011Z,4.60
2022-12-08T13:23:43.216Z,4.60
2022-12-08T13:26:22.092Z,4.60
2022-12-08T13:29:21.360Z,4.50
2022-12-08T13:31:54.567Z,4.60
2022-12-08T13:34:32.765Z,4.70
2022-12-08T13:37:24.107Z,4.60
2022-12-08T13:39:57.700Z,4.50
2022-12-08T13:42:38.157Z,4.50
2022-12-08T13:45:28.008Z,4.50
2022-12-08T13:48:30.118Z,4.70
2022-12-08T13:57:11.796Z,4.90
2022-12-08T13:59:46.259Z,4.70
2022-12-08T14:02:28.664Z,4.70
2022-12-08T14:07:48.454Z,4.60
2022-12-08T14:10:21.764Z,4.60
2022-12-08T14:12:57.412Z,4.60
2022-12-08T14:15:30.210Z,4.60
2022-12-08T14:18:02.645Z,4.70
2022-12-08T14:20:38.655Z,4.50
2022-12-08T14:23:19.088Z,4.40
2022-12-08T14:25:49.082Z,4.40
2022-12-08T14:28:18.344Z,4.30
2022-12-08T14:30:50.883Z,4.30
2022-12-08T14:33:19.247Z,4.30
2022-12-08T14:35:53.469Z,4.20
2022-12-08T14:38:23.642Z,4.10
2022-12-08T14:41:04.913Z,4.10
2022-12-08T14:43:33.874Z,4.10
2022-12-08T14:46:20.714Z,4.10
2022-12-08T14:48:49.178Z,4.10
2022-12-08T14:51:28.389Z,4.10
2022-12-08T14:53:59.866Z,4.10
2022-12-08T14:56:33.921Z,4.10
2022-12-08T14:59:12.634Z,4.10
2022-12-08T15:01:44.009Z,4.00
2022-12-08T15:04:20.261Z,3.90
2022-12-08T15:06:54.452Z,3.90
2022-12-08T15:09:36.219Z,3.90
2022-12-08T15:12:05.969Z,3.90
2022-12-08T15:14:37.587Z,3.80
2022-12-08T15:17:33.246Z,3.70
2022-12-08T15:20:04.487Z,3.70
2022-12-08T15:22:33.484Z,3.60
2022-12-08T15:25:02.511Z,3.60
2022-12-08T15:27:34.953Z,3.60
2022-12-08T15:30:14.903Z,3.50
2022-12-08T15:32:45.386Z,3.50
2022-12-08T15:35:15.173Z,3.50
2022-12-08T15:37:43.816Z,3.40
2022-12-08T15:40:19.039Z,3.30
2022-12-08T15:42:47.568Z,3.30
2022-12-08T15:45:17.874Z,3.30
2022-12-08T15:47:47.888Z,3.30
2022-12-08T15:50:19.400Z,3.20
2022-12-08T15:52:48.028Z,3.20
2022-12-08T15:55:19.157Z,3.20
2022-12-08T16:00:55.446Z,3.10
2022-12-08T16:04:14.305Z,3.10
2022-12-08T16:09:19.220Z,3.00
2022-12-08T16:12:07.885Z,3.00
2022-12-08T16:17:27.949Z,2.90
2022-12-08T16:19:59.310Z,2.80
2022-12-08T16:25:22.334Z,2.70
2022-12-08T16:28:44.807Z,2.60
2022-12-08T16:30:43.020Z,2.60
2022-12-08T16:33:12.775Z,2.50
2022-12-08T16:35:43.469Z,2.50
2022-12-08T16:38:16.548Z,2.40
2022-12-08T16:41:05.159Z,2.40
2022-12-08T16:43:35.335Z,2.30
2022-12-08T16:46:05.182Z,2.30
2022-12-08T16:48:34.699Z,2.10
2022-12-08T16:51:09.202Z,1.90
2022-12-08T16:53:37.681Z,1.90
2022-12-08T16:56:06.473Z,1.70
2022-12-08T16:58:35.234Z,1.60
2022-12-08T17:01:03.591Z,1.40
2022-12-08T17:03:35.068Z,1.30
2022-12-08T17:06:11.243Z,1.10
2022-12-08T17:08:40.734Z,1.00
2022-12-08T17:11:11.782Z,0.90
2022-12-08T17:13:43.167Z,0.80
2022-12-08T17:16:16.256Z,0.70
2022-12-08T17:18:44.923Z,0.60
2022-12-08T17:21:18.124Z,0.50
2022-12-08T17:23:47.283Z,0.50
2022-12-08T17:26:16.043Z,0.50
2022-12-08T17:29:00.134Z,0.40
2022-12-08T17:31:31.465Z,0.30
2022-12-08T17:34:00.688Z,0.20
2022-12-08T17:36:33.518Z,0.20
2022-12-08T17:39:02.270Z,0.20
2022-12-08T17:41:31.290Z,0.00
2022-12-08T17:43:59.733Z,0.10
2022-12-08T17:46:28.453Z,0.00
2022-12-08T17:48:56.784Z,0.00
2022-12-08T17:51:25.091Z,0.00
2022-12-08T17:53:54.917Z,0.00
2022-12-08T17:56:24.262Z,-0.10
2022-12-08T17:58:54.848Z,-0.10
2022-12-08T18:01:24.845Z,-0.30
2022-12-08T18:03:53.600Z,-0.40
2022-12-08T18:06:23.689Z,-0.40
2022-12-08T18:08:55.462Z,-0.50
2022-12-08T18:11:23.926Z,-0.40
2022-12-08T18:13:54.388Z,-0.50
2022-12-08T18:16:26.262Z,-0.50
2022-12-08T18:18:58.205Z,-0.50
2022-12-08T18:21:26.764Z,-0.50
2022-12-08T18:23:56.571Z,-0.60
2022-12-08T18:26:25.281Z,-0.50
2022-12-08T18:28:53.815Z,-0.50
2022-12-08T18:31:23.745Z,-0.50
2022-12-08T18:33:54.195Z,-0.50
2022-12-08T18:36:26.342Z,-0.60
2022-12-08T18:38:56.249Z,-0.60
2022-12-08T18:41:28.235Z,-0.60
2022-12-08T18:43:58.102Z,-0.50
2022-12-08T18:46:27.034Z,-0.60
2022-12-08T18:48:56.627Z,-0.60
2022-12-08T18:51:25.977Z,-0.50
2022-12-08T18:53:56.115Z,-0.40
2022-12-08T18:56:27.706Z,-0.60
2022-12-08T18:59:02.789Z,-0.60
2022-12-08T19:01:33.046Z,-0.70
2022-12-08T19:04:27.311Z,-0.80
2022-12-08T19:06:50.377Z,-0.80
2022-12-08T19:09:20.704Z,-0.80
2022-12-08T19:11:49.078Z,-0.80
2022-12-08T19:14:21.256Z,-0.70
2022-12-08T19:16:52.816Z,-0.80
2022-12-08T19:19:21.585Z,-0.70
2022-12-08T19:21:50.104Z,-0.80
2022-12-08T19:24:20.382Z,-0.70
2022-12-08T19:26:48.700Z,-0.60
2022-12-08T19:29:17.347Z,-0.50
2022-12-08T19:31:46.260Z,-0.60
2022-12-08T19:34:16.010Z,-0.50
2022-12-08T19:36:45.189Z,-0.50
2022-12-08T19:39:35.452Z,-0.60
2022-12-08T19:42:23.034Z,-0.60
2022-12-08T19:44:55.444Z,-0.50
2022-12-08T19:47:27.562Z,-0.60
2022-12-08T19:50:18.760Z,-0.50
2022-12-08T19:52:47.497Z,-0.50
2022-12-08T19:55:15.920Z,-0.40
2022-12-08T19:57:46.040Z,-0.30
2022-12-08T20:00:16.251Z,-0.40
2022-12-08T20:02:44.778Z,-0.30
2022-12-08T20:05:14.811Z,-0.30
2022-12-08T20:07:43.568Z,-0.30
2022-12-08T20:10:18.257Z,-0.20
2022-12-08T20:12:47.986Z,-0.40
2022-12-08T20:15:16.698Z,-0.50
2022-12-08T20:17:45.536Z,-0.50
2022-12-08T20:20:15.266Z,-0.50
2022-12-08T20:22:45.259Z,-0.50
2022-12-08T20:25:15.253Z,-0.60
2022-12-08T20:27:44.027Z,-0.50
2022-12-08T20:30:17.212Z,-0.50
2022-12-08T20:32:46.193Z,-0.40
2022-12-08T20:35:15.902Z,-0.30
2022-12-08T20:37:45.539Z,-0.40
2022-12-08T20:40:15.886Z,-0.40
2022-12-08T20:42:44.562Z,-0.40
2022-12-08T20:45:14.582Z,-0.30
2022-12-08T20:47:44.014Z,-0.30
2022-12-08T20:50:13.121Z,-0.20
2022-12-08T20:52:42.772Z,-0.10
2022-12-08T20:55:15.766Z,-0.20
2022-12-08T20:57:45.518Z,-0.20
2022-12-08T21:00:16.745Z,-0.20
2022-12-08T21:02:49.791Z,-0.20
2022-12-08T21:05:19.565Z,-0.20
2022-12-08T21:07:48.895Z,-0.20
2022-12-08T21:10:18.845Z,-0.20
2022-12-08T21:12:52.189Z,-0.20
2022-12-08T21:15:25.557Z,-0.20
2022-12-08T21:17:54.940Z,-0.20
2022-12-08T21:20:25.451Z,-0.10
2022-12-08T21:22:53.980Z,-0.10
2022-12-08T21:25:22.365Z,-0.10
2022-12-08T21:27:50.775Z,-0.10
2022-12-08T21:30:21.479Z,-0.10
2022-12-08T21:32:51.121Z,0.00
2022-12-08T21:35:21.898Z,0.00
2022-12-08T21:37:51.429Z,0.10
2022-12-08T21:40:21.365Z,0.10
2022-12-08T21:42:50.847Z,0.10
2022-12-08T21:45:22.625Z,0.10
2022-12-08T21:47:52.063Z,0.10
2022-12-08T21:50:20.907Z,0.10
2022-12-08T21:52:51.939Z,0.10
2022-12-08T21:55:23.822Z,0.20
2022-12-08T21:57:54.078Z,0.10
2022-12-08T22:00:25.792Z,0.10
2022-12-08T22:02:56.580Z,0.10
2022-12-08T22:05:26.027Z,0.10
2022-12-08T22:07:54.609Z,0.20
2022-12-08T22:10:24.703Z,0.20
2022-12-08T22:12:53.062Z,0.20
2022-12-08T22:15:29.856Z,0.20
2022-12-08T22:17:58.619Z,0.20
2022-12-08T22:20:27.074Z,0.20
2022-12-08T22:22:55.395Z,0.20
2022-12-08T22:25:23.811Z,0.10
2022-12-08T22:27:52.413Z,0.10
2022-12-08T22:30:22.153Z,0.10
2022-12-08T22:32:51.901Z,0.10
2022-12-08T22:35:20.466Z,0.10
2022-12-08T22:37:50.221Z,0.10
2022-12-08T22:40:21.147Z,0.20
2022-12-08T22:42:50.734Z,0.20
2022-12-08T22:45:19.514Z,0.10
2022-12-08T22:47:48.153Z,0.20
2022-12-08T22:50:18.026Z,0.20
2022-12-08T22:52:46.526Z,0.20
2022-12-08T22:55:15.053Z,0.30
2022-12-08T22:57:43.351Z,0.30
2022-12-08T23:00:13.466Z,0.30
2022-12-08T23:02:42.067Z,0.30
2022-12-08T23:05:12.508Z,0.40
2022-12-08T23:07:42.515Z,0.40
2022-12-08T23:10:12.037Z,0.40
2022-12-08T23:12:41.004Z,0.50
2022-12-08T23:15:10.733Z,0.50
2022-12-08T23:17:39.289Z,0.50
2022-12-08T23:20:09.781Z,0.50
2022-12-08T23:22:38.859Z,0.60
2022-12-08T23:25:10.251Z,0.60
2022-12-08T23:27:39.076Z,0.70
2022-12-08T23:30:11.472Z,0.70
2022-12-08T23:32:40.839Z,0.70
2022-12-08T23:35:10.517Z,0.80
2022-12-08T23:37:38.922Z,0.80
2022-12-08T23:40:12.046Z,0.80
2022-12-08T23:42:41.056Z,0.80
2022-12-08T23:45:11.011Z,0.90
2022-12-08T23:47:41.454Z,0.90
2022-12-08T23:50:12.198Z,0.90
2022-12-08T23:52:41.123Z,1.00
2022-12-08T23:55:12.192Z,1.10
2022-12-08T23:57:44.103Z,1.10
